createdAt,value
2022-08-21T00:00:20.074Z,16.92
2022-08-21T00:03:16.460Z,16.90
2022-08-21T00:05:47.657Z,16.91
2022-08-21T00:08:15.044Z,16.91
2022-08-21T00:10:43.659Z,16.95
2022-08-21T00:13:12.032Z,16.96
2022-08-21T00:15:41.520Z,16.96
2022-08-21T00:18:12.385Z,16.99
2022-08-21T00:20:41.851Z,16.98
2022-08-21T00:23:09.784Z,16.99
2022-08-21T00:25:37.644Z,16.99
2022-08-21T00:28:05.015Z,17.02
2022-08-21T00:30:32.303Z,17.02
2022-08-21T00:33:00.189Z,17.01
2022-08-21T00:35:31.638Z,17.01
2022-08-21T00:37:58.997Z,17.01
2022-08-21T00:40:31.018Z,17.02
2022-08-21T00:42:58.438Z,17.05
2022-08-21T00:45:26.346Z,17.06
2022-08-21T00:47:53.788Z,17.05
2022-08-21T00:50:21.587Z,17.08
2022-08-21T00:52:50.949Z,17.10
2022-08-21T00:55:18.689Z,17.12
2022-08-21T00:57:50.544Z,17.13
2022-08-21T01:00:23.041Z,17.14
2022-08-21T01:02:49.957Z,17.16
2022-08-21T01:05:17.455Z,17.17
2022-08-21T01:07:44.477Z,17.19
2022-08-21T01:10:13.368Z,17.21
2022-08-21T01:12:56.089Z,17.24
2022-08-21T01:15:28.972Z,17.24
2022-08-21T01:17:55.772Z,17.28
2022-08-21T01:20:23.370Z,17.28
2022-08-21T01:23:01.743Z,17.29
2022-08-21T01:25:28.925Z,17.32
2022-08-21T01:27:56.632Z,17.31
2022-08-21T01:30:28.152Z,17.32
2022-08-21T01:32:56.693Z,17.34
2022-08-21T01:35:24.202Z,17.35
2022-08-21T01:37:51.093Z,17.34
2022-08-21T01:40:18.594Z,17.36
2022-08-21T01:42:46.726Z,17.35
2022-08-21T01:45:16.454Z,17.33
2022-08-21T01:47:44.914Z,17.32
2022-08-21T01:50:14.419Z,17.32
2022-08-21T01:52:41.866Z,17.29
2022-08-21T01:55:11.470Z,17.15
2022-08-21T01:57:39.134Z,17.13
2022-08-21T02:00:10.679Z,17.11
2022-08-21T02:02:42.210Z,17.09
2022-08-21T02:05:11.140Z,17.09
2022-08-21T02:07:43.503Z,17.07
2022-08-21T02:10:13.143Z,17.06
2022-08-21T02:12:40.059Z,17.08
2022-08-21T02:15:09.290Z,17.06
2022-08-21T02:17:45.940Z,17.07
2022-08-21T02:20:26.901Z,17.04
2022-08-21T02:22:54.323Z,17.04
2022-08-21T02:25:24.495Z,17.06
2022-08-21T02:27:51.989Z,17.03
2022-08-21T02:30:27.582Z,16.97
2022-08-21T02:32:54.978Z,16.92
2022-08-21T02:35:23.139Z,16.88
2022-08-21T02:37:53.602Z,16.88
2022-08-21T02:40:25.893Z,16.88
2022-08-21T02:42:53.726Z,16.84
2022-08-21T02:45:21.333Z,16.79
2022-08-21T02:47:54.082Z,16.79
2022-08-21T02:50:24.939Z,16.79
2022-08-21T02:52:55.338Z,16.79
2022-08-21T02:55:25.385Z,16.80
2022-08-21T02:57:52.463Z,16.79
2022-08-21T03:00:19.737Z,16.78
2022-08-21T03:02:46.577Z,16.74
2022-08-21T03:05:14.812Z,16.73
2022-08-21T03:07:43.343Z,16.67
2022-08-21T03:10:10.527Z,16.70
2022-08-21T03:12:41.155Z,16.72
2022-08-21T03:15:11.106Z,16.78
2022-08-21T03:17:38.516Z,16.81
2022-08-21T03:20:08.285Z,16.83
2022-08-21T03:22:36.152Z,16.84
2022-08-21T03:25:05.745Z,16.85
2022-08-21T03:27:34.379Z,16.82
2022-08-21T03:30:02.320Z,16.77
2022-08-21T03:32:29.236Z,16.73
2022-08-21T03:34:55.997Z,16.65
2022-08-21T03:37:22.800Z,16.64
2022-08-21T03:39:49.773Z,16.68
2022-08-21T03:42:16.661Z,16.68
2022-08-21T03:44:43.694Z,16.71
2022-08-21T03:47:10.639Z,16.71
2022-08-21T03:49:38.283Z,16.75
2022-08-21T03:52:05.682Z,16.73
2022-08-21T03:54:32.840Z,16.74
2022-08-21T03:57:00.122Z,16.75
2022-08-21T03:59:27.025Z,16.80
2022-08-21T04:02:00.315Z,16.85
2022-08-21T04:04:28.790Z,16.87
2022-08-21T04:06:57.314Z,16.85
2022-08-21T04:09:25.115Z,16.83
2022-08-21T04:11:51.995Z,16.80
2022-08-21T04:14:19.196Z,16.80
2022-08-21T04:16:46.035Z,16.79
2022-08-21T04:19:14.245Z,16.76
2022-08-21T04:21:41.664Z,16.77
2022-08-21T04:24:11.842Z,16.80
2022-08-21T04:26:39.570Z,16.79
2022-08-21T04:29:06.631Z,16.80
2022-08-21T04:31:36.950Z,16.81
2022-08-21T04:34:06.707Z,16.78
2022-08-21T04:36:34.537Z,16.80
2022-08-21T04:39:03.571Z,16.80
2022-08-21T04:41:30.488Z,16.79
2022-08-21T04:43:57.538Z,16.80
2022-08-21T04:46:24.682Z,16.81
2022-08-21T04:48:51.550Z,16.84
2022-08-21T04:51:36.246Z,16.85
2022-08-21T04:54:18.238Z,16.90
2022-08-21T04:56:57.141Z,16.93
2022-08-21T04:59:28.638Z,16.96
2022-08-21T05:01:55.633Z,16.99
2022-08-21T05:04:27.713Z,17.01
2022-08-21T05:06:57.659Z,17.04
2022-08-21T05:09:25.724Z,17.07
2022-08-21T05:11:52.830Z,17.09
2022-08-21T05:14:20.754Z,17.09
2022-08-21T05:16:47.953Z,17.10
2022-08-21T05:19:15.314Z,17.12
2022-08-21T05:21:45.219Z,17.15
2022-08-21T05:24:12.915Z,17.19
2022-08-21T05:26:46.407Z,17.26
2022-08-21T05:29:18.943Z,17.31
2022-08-21T05:31:47.443Z,17.35
2022-08-21T05:34:21.466Z,17.39
2022-08-21T05:36:48.294Z,17.36
2022-08-21T05:39:15.712Z,17.35
2022-08-21T05:41:42.870Z,17.35
2022-08-21T05:44:10.412Z,17.38
2022-08-21T05:46:38.209Z,17.38
2022-08-21T05:49:05.048Z,17.38
2022-08-21T05:51:32.081Z,17.37
2022-08-21T05:53:58.897Z,17.42
2022-08-21T05:56:25.897Z,17.45
2022-08-21T05:58:52.813Z,17.46
2022-08-21T06:01:19.723Z,17.49
2022-08-21T06:03:46.604Z,17.53
2022-08-21T06:06:13.381Z,17.50
2022-08-21T06:08:40.220Z,17.54
2022-08-21T06:11:09.820Z,17.56
2022-08-21T06:13:37.598Z,17.58
2022-08-21T06:16:11.050Z,17.60
2022-08-21T06:18:38.712Z,17.70
2022-08-21T06:21:06.622Z,17.71
2022-08-21T06:23:34.433Z,17.79
2022-08-21T06:26:03.154Z,17.80
2022-08-21T06:28:30.253Z,17.79
2022-08-21T06:30:57.072Z,17.79
2022-08-21T06:33:23.902Z,17.82
2022-08-21T06:35:51.015Z,17.83
2022-08-21T06:38:18.195Z,17.84
2022-08-21T06:40:46.968Z,17.85
2022-08-21T06:43:17.599Z,17.87
2022-08-21T06:45:45.601Z,17.90
2022-08-21T06:48:16.914Z,17.94
2022-08-21T06:50:46.246Z,17.94
2022-08-21T06:53:15.204Z,17.99
2022-08-21T06:55:42.689Z,18.00
2022-08-21T06:58:10.637Z,17.95
2022-08-21T07:00:41.899Z,17.99
2022-08-21T07:03:08.796Z,18.06
2022-08-21T07:05:35.619Z,18.08
2022-08-21T07:08:02.559Z,18.05
2022-08-21T07:10:29.490Z,18.03
2022-08-21T07:13:00.532Z,18.02
2022-08-21T07:15:31.034Z,18.04
2022-08-21T07:17:59.762Z,18.04
2022-08-21T07:20:28.290Z,18.04
2022-08-21T07:22:55.808Z,18.05
2022-08-21T07:25:22.822Z,18.02
2022-08-21T07:27:49.679Z,17.98
2022-08-21T07:30:16.532Z,17.95
2022-08-21T07:32:43.441Z,18.00
2022-08-21T07:35:10.284Z,18.02
2022-08-21T07:37:37.235Z,18.01
2022-08-21T07:40:04.759Z,18.04
2022-08-21T07:42:31.726Z,18.06
2022-08-21T07:44:58.523Z,17.99
2022-08-21T07:47:29.313Z,17.99
2022-08-21T07:50:09.563Z,17.94
2022-08-21T07:52:36.506Z,17.90
2022-08-21T07:55:06.291Z,17.91
2022-08-21T07:57:34.405Z,17.94
2022-08-21T08:00:01.205Z,17.87
2022-08-21T08:02:30.226Z,17.87
2022-08-21T08:05:05.666Z,17.92
2022-08-21T08:07:32.795Z,17.97
2022-08-21T08:09:59.836Z,18.00
2022-08-21T08:12:26.969Z,18.08
2022-08-21T08:14:53.884Z,18.14
2022-08-21T08:17:20.753Z,18.21
2022-08-21T08:19:47.555Z,18.26
2022-08-21T08:22:15.934Z,18.32
2022-08-21T08:24:42.992Z,18.37
2022-08-21T08:27:09.941Z,18.39
2022-08-21T08:29:36.808Z,18.43
2022-08-21T08:32:05.080Z,18.48
2022-08-21T08:34:31.953Z,18.56
2022-08-21T08:36:58.805Z,18.59
2022-08-21T08:39:29.405Z,18.67
2022-08-21T08:42:33.593Z,18.72
2022-08-21T08:45:06.927Z,18.70
2022-08-21T08:47:37.595Z,18.77
2022-08-21T08:50:08.968Z,18.76
2022-08-21T08:52:42.796Z,18.72
2022-08-21T08:55:15.180Z,18.49
2022-08-21T08:57:46.230Z,18.37
2022-08-21T09:00:19.812Z,18.31
2022-08-21T09:02:47.472Z,18.29
2022-08-21T09:05:25.838Z,18.31
2022-08-21T09:08:18.988Z,18.44
2022-08-21T09:11:11.572Z,18.52
2022-08-21T09:14:02.511Z,18.49
2022-08-21T09:16:55.113Z,18.33
2022-08-21T09:19:47.922Z,18.24
2022-08-21T09:22:43.742Z,18.24
2022-08-21T09:25:24.139Z,18.23
2022-08-21T09:27:51.921Z,18.29
2022-08-21T09:30:25.017Z,18.29
2022-08-21T09:32:52.055Z,18.26
2022-08-21T09:35:23.159Z,18.38
2022-08-21T09:37:57.207Z,18.40
2022-08-21T09:40:33.101Z,18.39
2022-08-21T09:43:07.089Z,18.35
2022-08-21T09:45:36.371Z,18.29
2022-08-21T09:48:21.223Z,18.23
2022-08-21T09:50:49.942Z,18.19
2022-08-21T09:53:18.512Z,18.29
2022-08-21T09:56:17.094Z,18.35
2022-08-21T09:58:46.816Z,18.31
2022-08-21T10:01:17.238Z,18.28
2022-08-21T10:03:44.831Z,18.27
2022-08-21T10:06:21.572Z,18.26
2022-08-21T10:08:49.304Z,18.30
2022-08-21T10:11:18.303Z,18.28
2022-08-21T10:13:45.055Z,18.29
2022-08-21T10:16:33.867Z,18.27
2022-08-21T10:19:23.529Z,18.23
2022-08-21T10:22:04.558Z,18.18
2022-08-21T10:24:49.615Z,18.21
2022-08-21T10:27:48.697Z,18.02
2022-08-21T10:30:20.338Z,18.08
2022-08-21T10:33:08.890Z,18.06
2022-08-21T10:35:57.853Z,18.02
2022-08-21T10:38:55.274Z,18.02
2022-08-21T10:41:43.993Z,17.96
2022-08-21T10:44:29.439Z,17.99
2022-08-21T10:47:35.103Z,18.11
2022-08-21T10:50:55.735Z,18.18
2022-08-21T10:53:42.430Z,18.13
2022-08-21T10:56:18.349Z,18.09
2022-08-21T10:59:17.011Z,18.04
2022-08-21T11:01:52.097Z,18.06
2022-08-21T11:04:48.766Z,18.10
2022-08-21T11:07:58.038Z,18.16
2022-08-21T11:10:41.587Z,18.16
2022-08-21T11:13:41.367Z,18.15
2022-08-21T11:16:32.587Z,18.17
2022-08-21T11:19:35.026Z,18.13
2022-08-21T11:22:29.760Z,18.12
2022-08-21T11:25:08.807Z,18.24
2022-08-21T11:27:38.469Z,18.38
2022-08-21T11:30:06.935Z,18.43
2022-08-21T11:33:13.232Z,18.50
2022-08-21T11:36:02.873Z,18.65
2022-08-21T11:38:36.216Z,18.66
2022-08-21T11:41:28.526Z,18.65
2022-08-21T11:44:15.785Z,18.67
2022-08-21T11:46:54.753Z,18.73
2022-08-21T11:49:50.584Z,18.72
2022-08-21T11:52:40.486Z,18.77
2022-08-21T11:55:23.703Z,18.88
2022-08-21T11:57:54.973Z,18.93
2022-08-21T12:00:37.134Z,18.88
2022-08-21T12:03:13.277Z,18.93
2022-08-21T12:05:56.779Z,18.94
2022-08-21T12:08:41.108Z,18.96
2022-08-21T12:11:24.807Z,18.92
2022-08-21T12:14:17.841Z,18.90
2022-08-21T12:16:48.111Z,18.79
2022-08-21T12:19:21.090Z,18.73
2022-08-21T12:22:10.602Z,18.69
2022-08-21T12:24:41.931Z,18.62
2022-08-21T12:27:15.025Z,18.61
2022-08-21T12:29:49.210Z,18.60
2022-08-21T12:32:16.015Z,18.48
2022-08-21T12:34:58.921Z,18.33
2022-08-21T12:37:53.507Z,18.28
2022-08-21T12:40:25.027Z,18.30
2022-08-21T12:43:00.358Z,18.36
2022-08-21T12:45:39.032Z,18.39
2022-08-21T12:48:16.104Z,18.35
2022-08-21T12:50:49.261Z,18.35
2022-08-21T12:53:41.809Z,18.26
2022-08-21T12:56:15.122Z,18.28
2022-08-21T12:58:48.070Z,18.21
2022-08-21T13:01:27.063Z,18.16
2022-08-21T13:04:04.576Z,18.18
2022-08-21T13:06:38.742Z,18.19
2022-08-21T13:09:09.461Z,18.18
2022-08-21T13:11:36.635Z,18.21
2022-08-21T13:14:18.891Z,18.25
2022-08-21T13:16:46.655Z,18.26
2022-08-21T13:19:23.318Z,18.28
2022-08-21T13:21:51.526Z,18.27
2022-08-21T13:24:45.914Z,18.18
2022-08-21T13:27:22.349Z,18.21
2022-08-21T13:29:54.161Z,18.14
2022-08-21T13:32:27.280Z,18.09
2022-08-21T13:34:54.573Z,18.09
2022-08-21T13:37:24.318Z,18.08
2022-08-21T13:39:53.713Z,18.10
2022-08-21T13:42:21.230Z,18.15
2022-08-21T13:44:48.906Z,18.22
2022-08-21T13:47:17.909Z,18.30
2022-08-21T13:49:48.018Z,18.27
2022-08-21T13:52:17.793Z,18.27
2022-08-21T13:54:44.772Z,18.29
2022-08-21T13:57:27.755Z,18.29
2022-08-21T14:00:20.831Z,18.34
2022-08-21T14:02:51.532Z,18.35
2022-08-21T14:05:27.353Z,18.40
2022-08-21T14:08:30.044Z,18.43
2022-08-21T14:10:58.748Z,18.49
2022-08-21T14:13:31.309Z,18.53
2022-08-21T14:16:02.274Z,18.53
2022-08-21T14:18:29.905Z,18.57
2022-08-21T14:21:09.179Z,18.59
2022-08-21T14:23:36.430Z,18.59
2022-08-21T14:26:07.017Z,18.60
2022-08-21T14:28:42.578Z,18.61
2022-08-21T14:31:21.414Z,18.65
2022-08-21T14:33:49.273Z,18.66
2022-08-21T14:36:16.373Z,18.63
2022-08-21T14:38:43.885Z,18.63
2022-08-21T14:41:19.803Z,18.63
2022-08-21T14:43:48.142Z,18.62
2022-08-21T14:46:29.641Z,18.64
2022-08-21T14:48:56.725Z,18.64
2022-08-21T14:51:23.538Z,18.68
2022-08-21T14:53:50.425Z,18.67
2022-08-21T14:56:18.635Z,18.62
2022-08-21T14:58:49.423Z,18.65
2022-08-21T15:01:18.238Z,18.58
2022-08-21T15:03:46.166Z,18.59
2022-08-21T15:06:13.314Z,18.60
2022-08-21T15:08:40.185Z,18.61
2022-08-21T15:11:12.669Z,18.61
2022-08-21T15:13:40.984Z,18.63
2022-08-21T15:16:10.189Z,18.66
2022-08-21T15:18:37.060Z,18.66
2022-08-21T15:21:04.021Z,18.65
2022-08-21T15:23:30.907Z,18.64
2022-08-21T15:25:57.898Z,18.61
2022-08-21T15:28:26.783Z,18.61
2022-08-21T15:31:01.626Z,18.61
2022-08-21T15:33:29.112Z,18.61
2022-08-21T15:35:55.878Z,18.60
2022-08-21T15:38:23.217Z,18.60
2022-08-21T15:40:51.984Z,18.58
2022-08-21T15:43:31.657Z,18.56
2022-08-21T15:46:02.218Z,18.60
2022-08-21T15:48:30.117Z,18.61
2022-08-21T15:50:57.028Z,18.57
2022-08-21T15:53:23.956Z,18.55
2022-08-21T15:55:51.045Z,18.50
2022-08-21T15:58:18.321Z,18.53
2022-08-21T16:00:45.441Z,18.56
2022-08-21T16:03:15.696Z,18.58
2022-08-21T16:05:42.598Z,18.60
2022-08-21T16:08:09.670Z,18.58
2022-08-21T16:10:37.219Z,18.55
2022-08-21T16:13:07.315Z,18.51
2022-08-21T16:15:34.320Z,18.51
2022-08-21T16:18:02.861Z,18.46
2022-08-21T16:20:31.002Z,18.46
2022-08-21T16:22:59.049Z,18.48
2022-08-21T16:25:26.278Z,18.49
2022-08-21T16:27:59.602Z,18.48
2022-08-21T16:30:30.742Z,18.52
2022-08-21T16:32:58.187Z,18.53
2022-08-21T16:35:25.196Z,18.57
2022-08-21T16:37:53.321Z,18.55
2022-08-21T16:40:21.593Z,18.54
2022-08-21T16:42:48.909Z,18.56
2022-08-21T16:45:19.661Z,18.56
2022-08-21T16:47:46.531Z,18.56
2022-08-21T16:50:20.887Z,18.59
2022-08-21T16:52:48.030Z,18.63
2022-08-21T16:55:14.899Z,18.67
2022-08-21T16:57:42.551Z,18.68
2022-08-21T17:00:10.910Z,18.70
2022-08-21T17:02:41.192Z,18.73
2022-08-21T17:05:14.030Z,18.74
2022-08-21T17:07:42.913Z,18.74
2022-08-21T17:10:11.441Z,18.75
2022-08-21T17:12:39.041Z,18.78
2022-08-21T17:15:12.902Z,18.78
2022-08-21T17:17:39.937Z,18.78
2022-08-21T17:20:07.527Z,18.78
2022-08-21T17:22:34.398Z,18.78
2022-08-21T17:25:01.229Z,18.78
2022-08-21T17:27:28.417Z,18.79
2022-08-21T17:29:56.479Z,18.78
2022-08-21T17:32:24.276Z,18.79
2022-08-21T17:34:51.236Z,18.78
2022-08-21T17:37:18.667Z,18.78
2022-08-21T17:39:45.596Z,18.79
2022-08-21T17:42:14.070Z,18.81
2022-08-21T17:44:43.842Z,18.81
2022-08-21T17:47:11.970Z,18.80
2022-08-21T17:49:39.200Z,18.80
2022-08-21T17:52:07.042Z,18.79
2022-08-21T17:54:35.213Z,18.80
2022-08-21T17:57:03.061Z,18.80
2022-08-21T17:59:30.054Z,18.79
2022-08-21T18:01:57.045Z,18.79
2022-08-21T18:04:23.925Z,18.80
2022-08-21T18:06:50.767Z,18.81
2022-08-21T18:09:17.623Z,18.83
2022-08-21T18:11:44.562Z,18.83
2022-08-21T18:14:12.443Z,18.86
2022-08-21T18:16:39.585Z,18.88
2022-08-21T18:19:10.664Z,18.90
2022-08-21T18:21:37.987Z,18.92
2022-08-21T18:24:05.282Z,18.92
2022-08-21T18:26:39.687Z,18.92
2022-08-21T18:29:10.414Z,18.90
2022-08-21T18:31:39.030Z,18.88
2022-08-21T18:34:15.921Z,18.88
2022-08-21T18:36:45.255Z,18.87
2022-08-21T18:39:34.994Z,18.87
2022-08-21T18:42:00.663Z,18.84
2022-08-21T18:44:28.081Z,18.84
2022-08-21T18:47:01.643Z,18.83
2022-08-21T18:49:29.386Z,18.82
2022-08-21T18:51:57.503Z,18.80
2022-08-21T18:54:25.223Z,18.80
2022-08-21T18:56:54.934Z,18.81
2022-08-21T18:59:29.074Z,18.80
2022-08-21T19:01:57.899Z,18.80
2022-08-21T19:04:43.783Z,18.78
2022-08-21T19:07:12.677Z,18.76
2022-08-21T19:09:40.517Z,18.74
2022-08-21T19:12:14.031Z,18.75
2022-08-21T19:14:41.920Z,18.75
2022-08-21T19:17:09.367Z,18.76
2022-08-21T19:22:24.830Z,18.78
2022-08-21T19:24:52.058Z,18.78
2022-08-21T19:27:19.340Z,18.80
2022-08-21T19:29:46.589Z,18.82
2022-08-21T19:32:14.153Z,18.82
2022-08-21T19:34:42.352Z,18.81
2022-08-21T19:37:12.491Z,18.81
2022-08-21T19:39:44.850Z,18.80
2022-08-21T19:42:16.943Z,18.80
2022-08-21T19:44:45.239Z,18.83
2022-08-21T19:47:20.383Z,18.80
2022-08-21T19:49:52.777Z,18.82
2022-08-21T19:52:21.915Z,18.84
2022-08-21T19:54:51.238Z,18.89
2022-08-21T19:57:18.898Z,18.89
2022-08-21T19:59:46.187Z,18.87
2022-08-21T20:02:15.296Z,18.87
2022-08-21T20:04:53.561Z,18.83
2022-08-21T20:07:25.164Z,18.81
2022-08-21T20:09:55.621Z,18.79
2022-08-21T20:12:24.721Z,18.79
2022-08-21T20:14:52.430Z,18.78
2022-08-21T20:17:21.120Z,18.76
2022-08-21T20:19:52.653Z,18.77
2022-08-21T20:22:24.966Z,18.75
2022-08-21T20:24:53.618Z,18.75
2022-08-21T20:27:26.450Z,18.76
2022-08-21T20:29:55.463Z,18.75
2022-08-21T20:32:22.691Z,18.74
2022-08-21T20:34:51.834Z,18.75
2022-08-21T20:37:22.202Z,18.79
2022-08-21T20:40:06.424Z,18.76
2022-08-21T20:42:33.838Z,18.79
2022-08-21T20:45:00.748Z,18.79
2022-08-21T20:47:30.162Z,18.79
2022-08-21T20:50:02.632Z,18.81
2022-08-21T20:52:34.506Z,18.84
2022-08-21T20:55:09.754Z,18.79
2022-08-21T20:57:50.931Z,18.68
2022-08-21T21:00:22.696Z,18.54
2022-08-21T21:03:13.865Z,18.40
2022-08-21T21:05:54.154Z,18.44
2022-08-21T21:08:26.537Z,18.24
2022-08-21T21:11:05.287Z,18.21
2022-08-21T21:13:35.143Z,18.18
2022-08-21T21:16:08.566Z,18.10
2022-08-21T21:18:41.878Z,18.09
2022-08-21T21:21:17.269Z,18.01
2022-08-21T21:23:46.880Z,17.92
2022-08-21T21:26:29.348Z,17.93
2022-08-21T21:29:12.296Z,17.85
2022-08-21T21:31:42.119Z,17.76
2022-08-21T21:34:09.111Z,17.82
2022-08-21T21:36:56.445Z,17.90
2022-08-21T21:39:41.727Z,17.74
2022-08-21T21:42:41.222Z,17.81
2022-08-21T21:45:17.351Z,17.73
2022-08-21T21:48:04.344Z,17.76
2022-08-21T21:50:42.655Z,17.76
2022-08-21T21:53:12.784Z,17.71
2022-08-21T21:56:00.513Z,17.78
2022-08-21T21:59:14.939Z,17.88
2022-08-21T22:02:17.867Z,17.89
2022-08-21T22:04:56.869Z,17.91
2022-08-21T22:07:49.917Z,17.89
2022-08-21T22:10:43.899Z,17.81
2022-08-21T22:13:28.027Z,17.73
2022-08-21T22:15:56.497Z,17.84
2022-08-21T22:18:28.673Z,17.85
2022-08-21T22:21:05.376Z,17.80
2022-08-21T22:23:40.799Z,17.78
2022-08-21T22:26:16.955Z,17.76
2022-08-21T22:28:47.659Z,17.74
2022-08-21T22:31:19.909Z,17.66
2022-08-21T22:34:17.659Z,17.59
2022-08-21T22:36:54.721Z,17.52
2022-08-21T22:39:39.050Z,17.44
2022-08-21T22:42:12.809Z,17.39
2022-08-21T22:44:55.333Z,17.39
2022-08-21T22:47:44.761Z,17.27
2022-08-21T22:50:18.384Z,17.16
2022-08-21T22:52:50.285Z,17.09
2022-08-21T22:55:24.778Z,16.99
2022-08-21T22:58:23.092Z,16.80
2022-08-21T23:00:58.161Z,16.77
2022-08-21T23:03:42.899Z,16.73
2022-08-21T23:06:30.619Z,16.68
2022-08-21T23:09:00.395Z,16.60
2022-08-21T23:11:39.026Z,16.49
2022-08-21T23:14:06.736Z,16.45
2022-08-21T23:17:02.751Z,16.44
2022-08-21T23:19:44.607Z,16.46
2022-08-21T23:22:33.220Z,16.47
2022-08-21T23:25:10.271Z,16.49
2022-08-21T23:27:47.928Z,16.46
2022-08-21T23:30:24.178Z,16.43
2022-08-21T23:33:20.639Z,16.38
2022-08-21T23:36:15.607Z,16.37
2022-08-21T23:39:01.787Z,16.42
2022-08-21T23:41:53.563Z,16.37
2022-08-21T23:44:46.893Z,16.35
2022-08-21T23:47:42.653Z,16.34
2022-08-21T23:50:14.749Z,16.33
2022-08-21T23:52:59.706Z,16.32
2022-08-21T23:56:03.635Z,16.28
2022-08-21T23:58:42.803Z,16.25
